createdAt,value
2022-11-27T00:01:40.245Z,6.50
2022-11-27T00:06:35.223Z,6.55
2022-11-27T00:11:30.562Z,6.68
2022-11-27T00:16:26.197Z,6.45
2022-11-27T00:21:28.189Z,5.93
2022-11-27T00:26:22.895Z,6.10
2022-11-27T00:31:19.859Z,6.35
2022-11-27T00:36:14.458Z,6.05
2022-11-27T00:41:13.206Z,6.00
2022-11-27T00:46:06.691Z,5.78
2022-11-27T00:51:01.445Z,5.40
2022-11-27T00:55:56.252Z,5.63
2022-11-27T01:01:19.392Z,5.32
2022-11-27T01:06:13.226Z,5.57
2022-11-27T01:11:07.908Z,5.00
2022-11-27T01:16:11.316Z,4.85
2022-11-27T01:21:10.388Z,5.07
2022-11-27T01:26:06.588Z,4.43
2022-11-27T01:31:00.422Z,4.38
2022-11-27T01:35:58.968Z,4.97
2022-11-27T01:41:18.848Z,4.90
2022-11-27T01:46:22.817Z,4.50
2022-11-27T01:51:17.134Z,4.47
2022-11-27T01:56:10.832Z,4.70
2022-11-27T02:01:07.757Z,4.47
2022-11-27T02:06:01.681Z,5.07
2022-11-27T02:11:08.111Z,4.60
2022-11-27T02:16:22.908Z,4.57
2022-11-27T02:21:45.638Z,4.20
2022-11-27T02:27:19.427Z,4.63
2022-11-27T02:32:49.033Z,3.55
2022-11-27T02:38:08.160Z,3.92
2022-11-27T02:43:26.966Z,4.95
2022-11-27T02:48:25.481Z,3.70
2022-11-27T02:53:31.517Z,3.63
2022-11-27T02:58:29.162Z,3.50
2022-11-27T03:03:27.506Z,3.45
2022-11-27T03:08:33.716Z,3.67
2022-11-27T03:13:45.232Z,3.35
2022-11-27T03:18:44.590Z,3.80
2022-11-27T03:23:39.441Z,3.42
2022-11-27T03:28:34.886Z,3.60
2022-11-27T03:33:28.334Z,3.47
2022-11-27T03:38:21.862Z,3.50
2022-11-27T03:43:22.813Z,3.05
2022-11-27T03:48:43.197Z,3.40
2022-11-27T03:53:56.579Z,3.40
2022-11-27T03:59:26.317Z,3.53
2022-11-27T04:04:39.941Z,2.72
2022-11-27T04:09:34.541Z,3.13
2022-11-27T04:14:27.838Z,3.40
2022-11-27T04:19:21.361Z,3.20
2022-11-27T04:24:16.080Z,2.80
2022-11-27T04:29:09.633Z,2.90
2022-11-27T04:34:02.658Z,2.80
2022-11-27T04:38:56.495Z,3.22
2022-11-27T04:43:54.446Z,3.13
2022-11-27T04:48:47.608Z,2.85
2022-11-27T04:53:41.953Z,3.50
2022-11-27T04:58:34.990Z,3.00
2022-11-27T05:03:28.462Z,2.60
2022-11-27T05:08:22.371Z,2.17
2022-11-27T05:13:20.754Z,2.50
2022-11-27T05:18:14.362Z,2.50
2022-11-27T05:23:07.696Z,2.33
2022-11-27T05:28:01.801Z,2.25
2022-11-27T05:32:54.343Z,2.75
2022-11-27T05:37:47.787Z,2.05
2022-11-27T05:42:41.733Z,2.47
2022-11-27T05:47:35.345Z,2.28
2022-11-27T05:52:28.781Z,2.45
2022-11-27T05:57:22.723Z,2.13
2022-11-27T06:02:21.586Z,2.50
2022-11-27T06:12:15.487Z,2.47
2022-11-27T06:17:08.958Z,2.63
2022-11-27T06:22:02.066Z,3.40
2022-11-27T06:26:58.715Z,3.50
2022-11-27T06:31:52.843Z,3.90
2022-11-27T06:36:46.951Z,4.00
2022-11-27T06:41:39.957Z,4.50
2022-11-27T06:46:33.879Z,6.43
2022-11-27T06:51:29.748Z,5.40
2022-11-27T06:56:28.322Z,5.03
2022-11-27T07:01:23.096Z,5.60
2022-11-27T07:06:21.023Z,6.32
2022-11-27T07:11:19.444Z,6.20
2022-11-27T07:16:13.550Z,7.45
2022-11-27T07:21:07.634Z,6.10
2022-11-27T07:26:25.072Z,7.72
2022-11-27T07:31:20.495Z,8.65
2022-11-27T07:36:23.776Z,6.60
2022-11-27T07:41:18.046Z,6.15
2022-11-27T07:46:17.408Z,5.35
2022-11-27T07:51:12.919Z,5.03
2022-11-27T07:56:12.914Z,5.15
2022-11-27T08:01:17.119Z,5.13
2022-11-27T08:06:24.610Z,4.45
2022-11-27T08:11:27.847Z,4.55
2022-11-27T08:16:21.602Z,6.85
2022-11-27T08:21:14.767Z,3.58
2022-11-27T08:26:09.883Z,5.18
2022-11-27T08:31:05.296Z,5.90
2022-11-27T08:35:58.014Z,5.53
2022-11-27T08:41:01.446Z,6.45
2022-11-27T08:45:54.976Z,6.50
2022-11-27T08:50:49.870Z,6.28
2022-11-27T08:55:43.512Z,6.72
2022-11-27T09:00:39.304Z,6.80
2022-11-27T09:05:33.136Z,7.05
2022-11-27T09:10:26.997Z,7.35
2022-11-27T09:15:20.654Z,6.40
2022-11-27T09:20:15.410Z,4.03
2022-11-27T09:25:10.690Z,2.60
2022-11-27T09:30:06.090Z,2.40
2022-11-27T09:35:00.151Z,2.00
2022-11-27T09:39:53.946Z,1.90
2022-11-27T09:44:57.781Z,1.52
2022-11-27T09:50:01.316Z,1.10
2022-11-27T09:55:03.854Z,1.10
2022-11-27T10:00:02.237Z,1.00
2022-11-27T10:05:16.620Z,0.95
2022-11-27T10:10:26.571Z,1.00
2022-11-27T10:15:31.628Z,1.00
2022-11-27T10:20:29.713Z,0.70
2022-11-27T10:25:40.554Z,0.98
2022-11-27T10:30:51.123Z,0.90
2022-11-27T10:35:48.066Z,0.90
2022-11-27T10:40:48.554Z,0.73
2022-11-27T10:45:44.156Z,0.90
2022-11-27T10:50:38.557Z,0.85
2022-11-27T10:55:55.994Z,0.68
2022-11-27T11:01:00.300Z,0.73
2022-11-27T11:11:13.266Z,0.60
2022-11-27T11:16:14.481Z,0.80
2022-11-27T11:21:16.562Z,0.60
2022-11-27T11:26:35.168Z,0.70
2022-11-27T11:31:48.092Z,0.50
2022-11-27T11:36:41.977Z,0.70
2022-11-27T11:41:39.634Z,0.90
2022-11-27T11:46:36.933Z,0.73
2022-11-27T11:51:51.321Z,0.95
2022-11-27T11:56:52.418Z,0.80
2022-11-27T12:02:22.614Z,1.00
2022-11-27T12:07:24.412Z,0.70
2022-11-27T12:13:00.873Z,0.75
2022-11-27T12:18:21.529Z,0.77
2022-11-27T12:23:36.129Z,1.00
2022-11-27T12:28:35.388Z,1.30
2022-11-27T12:33:40.753Z,1.20
2022-11-27T12:38:42.558Z,1.25
2022-11-27T12:43:44.533Z,0.82
2022-11-27T12:48:43.087Z,0.63
2022-11-27T12:54:03.615Z,0.57
2022-11-27T13:04:19.378Z,0.60
2022-11-27T13:09:25.236Z,0.60
2022-11-27T13:14:24.886Z,0.40
2022-11-27T13:19:22.898Z,0.38
2022-11-27T13:24:16.594Z,0.30
2022-11-27T13:29:18.570Z,0.40
2022-11-27T13:34:24.145Z,0.28
2022-11-27T13:39:23.322Z,0.25
2022-11-27T13:44:30.990Z,0.30
2022-11-27T13:49:34.143Z,0.40
2022-11-27T13:54:29.277Z,0.20
2022-11-27T13:59:24.905Z,0.20
2022-11-27T14:04:18.777Z,0.25
2022-11-27T14:09:12.782Z,0.20
2022-11-27T14:14:18.861Z,0.17
2022-11-27T14:19:34.072Z,0.30
2022-11-27T14:24:30.504Z,0.20
2022-11-27T14:29:25.439Z,0.15
2022-11-27T14:34:31.242Z,0.10
2022-11-27T14:39:30.254Z,0.10
2022-11-27T14:44:24.145Z,0.13
2022-11-27T14:49:22.521Z,0.10
2022-11-27T14:54:27.196Z,0.10
2022-11-27T14:59:25.298Z,0.13
2022-11-27T15:04:40.060Z,0.20
2022-11-27T15:09:35.204Z,0.50
2022-11-27T15:14:29.835Z,0.68
2022-11-27T15:19:34.990Z,0.32
2022-11-27T15:24:38.034Z,0.70
2022-11-27T15:29:38.799Z,0.88
2022-11-27T15:34:35.417Z,0.75
2022-11-27T15:39:39.083Z,1.00
2022-11-27T15:44:33.819Z,0.85
2022-11-27T15:49:27.766Z,0.90
2022-11-27T15:54:21.505Z,1.40
2022-11-27T15:59:15.198Z,1.35
2022-11-27T16:04:08.985Z,1.30
2022-11-27T16:09:03.129Z,1.33
2022-11-27T16:13:56.623Z,1.40
2022-11-27T16:18:49.947Z,1.15
2022-11-27T16:23:43.175Z,1.45
2022-11-27T16:28:37.041Z,1.85
2022-11-27T16:33:30.905Z,2.60
2022-11-27T16:38:25.166Z,1.75
2022-11-27T16:43:18.845Z,2.03
2022-11-27T16:48:17.137Z,1.48
2022-11-27T16:53:11.606Z,1.70
2022-11-27T16:58:05.748Z,1.85
2022-11-27T17:03:00.414Z,1.38
2022-11-27T17:07:54.839Z,2.08
2022-11-27T17:12:48.574Z,2.95
2022-11-27T17:17:43.545Z,1.80
2022-11-27T17:22:38.736Z,1.75
2022-11-27T17:27:33.036Z,1.73
2022-11-27T17:32:26.359Z,2.10
2022-11-27T17:37:20.728Z,1.75
2022-11-27T17:42:18.119Z,2.40
2022-11-27T17:47:15.007Z,1.90
2022-11-27T17:52:09.318Z,2.17
2022-11-27T17:57:04.980Z,2.22
2022-11-27T18:01:58.379Z,3.53
2022-11-27T18:06:51.840Z,3.22
2022-11-27T18:11:48.850Z,4.05
2022-11-27T18:16:42.645Z,4.00
2022-11-27T18:21:38.158Z,4.38
2022-11-27T18:27:00.538Z,4.82
2022-11-27T18:31:48.821Z,5.65
2022-11-27T18:36:42.929Z,5.75
2022-11-27T18:41:37.804Z,6.40
2022-11-27T18:46:31.615Z,7.07
2022-11-27T18:51:27.229Z,6.45
2022-11-27T18:56:22.566Z,5.30
2022-11-27T19:01:22.955Z,5.38
2022-11-27T19:06:17.578Z,4.73
2022-11-27T19:11:15.185Z,16.35
2022-11-27T19:16:29.083Z,18.40
2022-11-27T19:21:24.759Z,17.38
2022-11-27T19:26:23.530Z,19.35
2022-11-27T19:31:17.699Z,21.23
2022-11-27T19:36:15.251Z,20.80
2022-11-27T19:41:31.889Z,27.42
2022-11-27T19:46:30.294Z,23.05
2022-11-27T19:51:24.077Z,20.90
2022-11-27T19:56:20.930Z,23.42
2022-11-27T20:01:19.926Z,8.90
2022-11-27T20:06:19.318Z,5.72
2022-11-27T20:11:15.481Z,4.85
2022-11-27T20:16:13.056Z,4.32
2022-11-27T20:21:09.428Z,3.45
2022-11-27T20:26:07.030Z,2.95
2022-11-27T20:31:02.287Z,2.90
2022-11-27T20:35:55.668Z,3.03
2022-11-27T20:40:51.931Z,2.97
2022-11-27T20:45:45.969Z,3.05
2022-11-27T20:50:40.316Z,2.30
2022-11-27T20:55:34.611Z,2.40
2022-11-27T21:00:28.518Z,1.95
2022-11-27T21:05:22.883Z,2.40
2022-11-27T21:10:18.386Z,2.13
2022-11-27T21:15:11.309Z,1.70
2022-11-27T21:20:06.381Z,1.60
2022-11-27T21:24:59.550Z,1.45
2022-11-27T21:29:54.172Z,1.25
2022-11-27T21:34:54.305Z,1.20
2022-11-27T21:39:47.491Z,1.27
2022-11-27T21:44:45.574Z,1.17
2022-11-27T21:49:40.511Z,1.50
2022-11-27T21:54:34.635Z,2.58
2022-11-27T21:59:28.979Z,2.58
2022-11-27T22:04:23.567Z,2.30
2022-11-27T22:09:16.889Z,2.67
2022-11-27T22:14:11.580Z,2.40
2022-11-27T22:19:05.436Z,2.60
2022-11-27T22:24:04.542Z,2.83
2022-11-27T22:28:59.091Z,2.67
2022-11-27T22:33:53.421Z,2.75
2022-11-27T22:38:49.686Z,2.60
2022-11-27T22:43:43.635Z,3.13
2022-11-27T22:48:36.765Z,2.40
2022-11-27T22:53:29.642Z,3.25
2022-11-27T22:58:23.221Z,2.75
2022-11-27T23:03:17.447Z,3.70
2022-11-27T23:08:10.971Z,2.65
2022-11-27T23:13:04.694Z,2.58
2022-11-27T23:17:58.789Z,2.72
2022-11-27T23:22:53.150Z,2.70
2022-11-27T23:27:48.941Z,3.03
2022-11-27T23:32:44.544Z,2.95
2022-11-27T23:37:37.524Z,2.80
2022-11-27T23:42:30.780Z,2.22
2022-11-27T23:47:24.723Z,2.53
2022-11-27T23:52:22.498Z,2.40
2022-11-27T23:57:15.390Z,3.13
